Time;durP1;ratioP1;P1;durP2;ratioP2;P2;SDS_P1;SDS_P2;PMS_P1;PMS_P2;Temp;Humidity;BMP_temperature;BMP_pressure;BME280_temperature;BME280_humidity;BME280_pressure;Samples;Min_cycle;Max_cycle;Signal;HPM_P1;HPM_P2
2022/11/08 00:01:59;;;;;;;9.98;4.80;;;13.00;64.00;;;;;;6252203;28;20092;-75
2022/11/08 00:14:59;;;;;;;10.57;4.32;;;13.00;64.10;;;;;;6246727;28;20502;-75
2022/11/08 00:18:00;;;;;;;13.63;5.57;;;13.00;64.10;;;;;;6252152;28;20038;-74
2022/11/08 00:21:02;;;;;;;10.15;4.97;;;13.00;64.00;;;;;;6235345;28;20038;-74
2022/11/08 00:24:03;;;;;;;8.70;5.18;;;13.00;64.00;;;;;;6237895;28;20079;-75
2022/11/08 00:27:07;;;;;;;8.88;4.75;;;13.00;63.90;;;;;;6237743;28;20059;-75
2022/11/08 00:30:09;;;;;;;15.13;5.40;;;13.00;63.80;;;;;;6254989;28;20045;-75
2022/11/08 00:33:10;;;;;;;8.65;4.95;;;13.00;63.70;;;;;;6236126;28;20046;-75
2022/11/08 00:36:11;;;;;;;10.82;5.43;;;13.00;63.60;;;;;;6239909;28;20037;-75
2022/11/08 00:39:12;;;;;;;12.82;4.80;;;13.00;63.60;;;;;;6253306;28;20041;-75
2022/11/08 00:42:13;;;;;;;10.63;5.22;;;13.00;63.60;;;;;;6239589;28;20033;-74
2022/11/08 00:45:14;;;;;;;12.07;4.80;;;13.00;63.80;;;;;;6226030;28;20068;-74
2022/11/08 00:48:15;;;;;;;11.25;4.95;;;13.00;63.60;;;;;;6248507;28;20116;-74
2022/11/08 00:51:17;;;;;;;12.40;5.43;;;13.00;63.60;;;;;;6258024;28;20037;-73
2022/11/08 00:54:19;;;;;;;12.25;5.57;;;12.90;63.60;;;;;;6259489;28;20040;-74
2022/11/08 00:57:20;;;;;;;14.07;4.82;;;12.90;63.60;;;;;;6257865;28;20041;-74
2022/11/08 01:00:22;;;;;;;10.30;5.40;;;12.90;63.60;;;;;;6257960;28;20048;-74
2022/11/08 01:03:24;;;;;;;11.02;5.03;;;12.90;63.70;;;;;;6217976;28;20057;-75
2022/11/08 01:06:25;;;;;;;13.32;4.57;;;12.90;63.70;;;;;;6257004;28;20041;-74
2022/11/08 01:09:26;;;;;;;11.82;5.63;;;12.90;63.60;;;;;;6240054;28;20119;-75
2022/11/08 01:12:28;;;;;;;16.02;5.32;;;12.80;63.60;;;;;;6256780;28;20065;-74
2022/11/08 01:15:34;;;;;;;10.27;5.15;;;12.80;63.60;;;;;;6220260;28;20080;-75
2022/11/08 01:18:36;;;;;;;11.63;4.95;;;12.80;63.90;;;;;;6253765;28;20124;-76
2022/11/08 01:21:38;;;;;;;13.88;4.55;;;12.80;64.00;;;;;;6240194;28;20059;-75
2022/11/08 01:24:39;;;;;;;10.93;5.05;;;12.80;63.90;;;;;;6253571;28;20029;-75
2022/11/08 01:27:42;;;;;;;8.55;5.15;;;12.70;63.90;;;;;;6239587;28;20041;-75
2022/11/08 01:30:43;;;;;;;9.63;4.78;;;12.70;63.90;;;;;;6257571;28;20037;-74
2022/11/08 01:33:44;;;;;;;11.52;4.93;;;12.60;64.00;;;;;;6222562;28;20034;-75
2022/11/08 01:36:47;;;;;;;11.70;4.80;;;12.60;64.10;;;;;;6224900;28;20044;-75
2022/11/08 01:39:48;;;;;;;8.75;4.97;;;12.60;64.20;;;;;;6254363;28;20042;-75
2022/11/08 01:42:49;;;;;;;11.93;5.03;;;12.60;64.20;;;;;;6234635;28;20037;-75
2022/11/08 01:46:09;;;;;;;13.88;5.53;;;12.60;64.30;;;;;;6259867;28;20328;-75
2022/11/08 01:49:22;;;;;;;15.48;5.72;;;12.50;64.40;;;;;;6256859;28;20412;-75
2022/11/08 01:52:44;;;;;;;15.05;5.30;;;12.50;64.40;;;;;;6246986;28;20535;-75
2022/11/08 01:55:46;;;;;;;12.73;5.15;;;12.40;64.50;;;;;;6253352;28;20541;-75
2022/11/08 01:58:50;;;;;;;9.63;4.65;;;12.50;64.60;;;;;;6255714;28;20064;-75
2022/11/08 02:01:52;;;;;;;19.73;4.95;;;12.50;64.60;;;;;;6233976;28;20041;-75
2022/11/08 02:04:53;;;;;;;13.50;5.28;;;12.50;64.60;;;;;;6237835;28;20374;-75
2022/11/08 02:08:05;;;;;;;9.55;4.78;;;12.50;64.60;;;;;;6239062;28;20033;-75
2022/11/08 02:11:10;;;;;;;11.82;5.05;;;12.50;64.60;;;;;;6236876;28;20057;-75
2022/11/08 02:14:11;;;;;;;11.48;4.90;;;12.50;64.70;;;;;;6250130;28;20354;-76
2022/11/08 02:17:13;;;;;;;13.07;4.93;;;12.40;64.70;;;;;;6228381;28;20120;-74
2022/11/08 02:20:14;;;;;;;9.77;4.80;;;12.40;64.70;;;;;;6223077;28;20451;-74
2022/11/08 02:23:41;;;;;;;18.63;4.90;;;12.40;64.70;;;;;;6221279;28;20045;-76
2022/11/08 02:26:45;;;;;;;10.02;4.60;;;12.40;64.70;;;;;;6250242;28;20359;-75
2022/11/08 02:29:46;;;;;;;8.20;4.03;;;12.40;64.70;;;;;;6254808;28;20382;-75
2022/11/08 02:32:47;;;;;;;11.82;4.85;;;12.40;64.60;;;;;;6250352;28;20073;-75
2022/11/08 02:35:53;;;;;;;12.05;4.70;;;12.40;64.60;;;;;;6219674;28;20381;-75
2022/11/08 02:38:56;;;;;;;10.70;5.15;;;12.40;64.60;;;;;;6230652;28;20042;-75
2022/11/08 02:41:58;;;;;;;11.95;5.28;;;12.30;64.60;;;;;;6231787;28;20049;-75
2022/11/08 02:44:59;;;;;;;8.73;4.53;;;12.30;64.70;;;;;;6240816;28;20055;-75
2022/11/08 02:48:00;;;;;;;13.32;4.88;;;12.30;64.70;;;;;;6252417;28;20041;-75
2022/11/08 02:51:01;;;;;;;8.07;4.47;;;12.30;64.70;;;;;;6249629;28;20045;-75
2022/11/08 02:54:02;;;;;;;9.63;4.32;;;12.30;64.70;;;;;;6230628;28;20071;-75
2022/11/08 02:57:03;;;;;;;11.77;5.13;;;12.30;64.50;;;;;;6230403;28;20049;-75
2022/11/08 03:00:04;;;;;;;7.05;4.32;;;12.30;64.50;;;;;;6251253;28;20049;-75
2022/11/08 03:03:06;;;;;;;13.68;5.00;;;12.40;64.40;;;;;;6224566;28;20350;-75
2022/11/08 03:06:07;;;;;;;10.10;4.88;;;12.40;64.30;;;;;;6251079;28;20513;-76
2022/11/08 03:09:08;;;;;;;12.57;4.75;;;12.40;64.30;;;;;;6226931;28;20551;-75
2022/11/08 03:12:09;;;;;;;11.15;5.15;;;12.40;64.30;;;;;;6243227;28;20059;-75
2022/11/08 03:15:12;;;;;;;9.35;4.18;;;12.30;64.40;;;;;;6231188;28;20037;-75
2022/11/08 03:18:12;;;;;;;9.90;4.20;;;12.30;64.50;;;;;;6233997;28;20046;-75
2022/11/08 03:21:13;;;;;;;9.35;4.30;;;12.30;64.70;;;;;;6248454;28;20386;-74
2022/11/08 03:24:15;;;;;;;10.23;4.10;;;12.30;64.70;;;;;;6234397;28;20061;-75
2022/11/08 03:27:18;;;;;;;12.52;5.00;;;12.30;64.60;;;;;;6250486;28;20098;-75
2022/11/08 03:30:19;;;;;;;14.38;5.10;;;12.30;64.50;;;;;;6225846;28;20038;-74
2022/11/08 03:33:20;;;;;;;11.55;4.53;;;12.20;64.40;;;;;;6234698;28;20046;-74
2022/11/08 03:36:21;;;;;;;9.13;4.43;;;12.20;64.50;;;;;;6210090;28;20033;-76
2022/11/08 03:39:22;;;;;;;12.88;5.25;;;12.10;64.60;;;;;;6246625;28;20041;-75
2022/11/08 03:42:23;;;;;;;10.63;4.22;;;12.10;64.80;;;;;;6234661;28;20053;-75
2022/11/08 03:45:24;;;;;;;9.20;4.25;;;12.00;64.90;;;;;;6248686;28;20032;-75
2022/11/08 03:48:26;;;;;;;12.57;5.20;;;12.00;65.00;;;;;;6229361;28;20041;-76
2022/11/08 03:51:27;;;;;;;12.80;5.05;;;12.00;65.00;;;;;;6232098;28;20043;-74
2022/11/08 03:54:28;;;;;;;8.77;4.90;;;12.00;65.10;;;;;;6236694;28;20415;-74
2022/11/08 03:57:29;;;;;;;11.15;4.78;;;12.00;65.10;;;;;;6251966;28;20044;-74
2022/11/08 04:00:30;;;;;;;9.40;4.30;;;12.00;65.10;;;;;;6233904;28;20060;-75
2022/11/08 04:03:31;;;;;;;10.25;4.43;;;12.00;65.10;;;;;;6243864;28;20034;-74
2022/11/08 04:06:32;;;;;;;9.93;4.43;;;12.00;65.10;;;;;;6251155;28;20041;-75
2022/11/08 04:09:33;;;;;;;7.90;4.22;;;12.00;65.10;;;;;;6253733;28;20036;-75
2022/11/08 04:16:01;;;;;;;14.80;4.82;;;12.00;65.30;;;;;;6248577;28;20032;-75
2022/11/08 04:22:21;;;;;;;9.27;4.13;;;11.90;65.50;;;;;;6256578;28;20033;-75
2022/11/08 04:25:22;;;;;;;12.13;4.63;;;11.90;65.50;;;;;;6255537;28;20465;-75
2022/11/08 04:28:30;;;;;;;10.48;4.38;;;11.90;65.50;;;;;;6242011;28;20048;-75
2022/11/08 04:31:31;;;;;;;12.60;4.53;;;11.90;65.60;;;;;;6232187;28;20030;-74
2022/11/08 04:34:32;;;;;;;13.27;5.22;;;11.90;65.70;;;;;;6244280;28;20102;-75
2022/11/08 04:37:33;;;;;;;17.45;4.25;;;11.90;65.70;;;;;;6230554;28;20044;-74
2022/11/08 04:40:34;;;;;;;14.45;5.75;;;11.90;65.70;;;;;;6239703;28;20049;-75
2022/11/08 04:43:37;;;;;;;11.18;4.47;;;11.90;65.80;;;;;;6221996;28;20495;-75
2022/11/08 04:46:39;;;;;;;19.88;5.00;;;11.90;65.90;;;;;;6236142;28;20033;-74
2022/11/08 04:49:40;;;;;;;9.82;5.25;;;11.90;65.90;;;;;;6243194;28;20041;-74
2022/11/08 04:52:42;;;;;;;16.13;5.10;;;12.00;65.90;;;;;;6240756;28;20050;-74
2022/11/08 04:55:45;;;;;;;10.35;4.15;;;12.00;66.00;;;;;;6255827;28;20469;-74
2022/11/08 04:58:48;;;;;;;20.30;4.38;;;12.00;65.90;;;;;;6248482;28;20038;-75
2022/11/08 05:01:50;;;;;;;7.40;4.13;;;12.00;65.90;;;;;;6237738;28;20053;-75
2022/11/08 05:04:52;;;;;;;9.40;4.30;;;12.00;65.90;;;;;;6232300;28;20036;-75
2022/11/08 05:07:53;;;;;;;11.35;4.57;;;12.00;65.80;;;;;;6237240;28;20033;-74
2022/11/08 05:11:07;;;;;;;12.35;4.97;;;12.10;65.80;;;;;;6239232;28;20513;-74
2022/11/08 05:14:08;;;;;;;11.50;3.92;;;12.10;65.80;;;;;;6252465;28;20080;-74
2022/11/08 05:17:09;;;;;;;7.30;3.92;;;12.10;65.70;;;;;;6240849;28;20029;-75
2022/11/08 05:23:30;;;;;;;6.90;3.70;;;12.20;65.70;;;;;;6239942;28;20073;-75
2022/11/08 05:26:33;;;;;;;15.85;4.63;;;12.10;65.40;;;;;;6236620;28;20102;-75
2022/11/08 05:29:34;;;;;;;9.30;3.42;;;12.10;66.00;;;;;;6217347;28;20517;-75
2022/11/08 05:32:35;;;;;;;10.70;4.32;;;12.10;65.70;;;;;;6213951;28;20413;-74
2022/11/08 05:35:37;;;;;;;10.98;4.80;;;12.10;64.80;;;;;;6257022;28;20049;-74
2022/11/08 05:38:39;;;;;;;9.15;4.25;;;12.10;64.60;;;;;;6227701;28;20056;-75
2022/11/08 05:41:40;;;;;;;7.88;3.97;;;12.10;64.40;;;;;;6234636;28;20030;-75
2022/11/08 05:44:42;;;;;;;12.10;4.03;;;12.00;64.30;;;;;;6236432;28;20040;-74
2022/11/08 05:47:44;;;;;;;9.80;3.65;;;12.00;64.30;;;;;;6247626;28;20099;-76
2022/11/08 05:50:46;;;;;;;13.07;3.90;;;12.00;64.30;;;;;;6256094;28;20033;-75
2022/11/08 05:53:49;;;;;;;15.00;5.18;;;12.00;64.30;;;;;;6234576;28;20044;-75
2022/11/08 05:56:51;;;;;;;10.77;4.47;;;11.90;64.30;;;;;;6236168;28;20442;-75
2022/11/08 05:59:52;;;;;;;10.35;3.75;;;11.90;64.50;;;;;;6249798;28;20041;-75
2022/11/08 06:02:53;;;;;;;8.85;4.13;;;11.90;64.30;;;;;;6251246;28;20108;-74
2022/11/08 06:05:55;;;;;;;10.55;4.30;;;11.90;64.30;;;;;;6216461;28;20026;-76
2022/11/08 06:08:56;;;;;;;10.20;4.35;;;11.90;64.40;;;;;;6247451;28;20171;-73
2022/11/08 06:11:57;;;;;;;8.13;3.63;;;11.90;64.30;;;;;;6212783;28;20425;-74
2022/11/08 06:14:58;;;;;;;8.55;4.15;;;11.90;64.40;;;;;;6234285;28;20048;-74
2022/11/08 06:18:03;;;;;;;8.02;4.22;;;11.90;64.30;;;;;;6252778;28;20543;-74
2022/11/08 06:21:07;;;;;;;14.05;5.18;;;11.90;64.40;;;;;;6251097;28;20038;-75
2022/11/08 06:24:08;;;;;;;11.45;4.90;;;11.90;64.30;;;;;;6248512;28;20044;-74
2022/11/08 06:27:09;;;;;;;7.50;4.00;;;11.90;64.30;;;;;;6240087;28;20116;-76
2022/11/08 06:30:11;;;;;;;8.52;4.53;;;11.90;64.30;;;;;;6230098;28;20037;-75
2022/11/08 06:33:12;;;;;;;12.48;5.07;;;11.90;64.30;;;;;;6215124;28;20037;-75
2022/11/08 06:36:13;;;;;;;14.52;4.47;;;12.00;64.50;;;;;;6236988;28;20107;-75
2022/11/08 06:39:14;;;;;;;8.95;4.35;;;12.00;64.40;;;;;;6219001;28;20442;-75
2022/11/08 06:42:15;;;;;;;8.57;4.53;;;12.00;64.40;;;;;;6222875;28;20040;-75
2022/11/08 06:45:16;;;;;;;8.25;4.20;;;12.00;64.50;;;;;;6251262;28;20458;-76
2022/11/08 06:48:17;;;;;;;12.55;4.40;;;12.00;64.50;;;;;;6250517;28;20046;-73
2022/11/08 06:51:18;;;;;;;11.85;4.82;;;12.00;64.40;;;;;;6252469;28;20087;-74
2022/11/08 06:54:19;;;;;;;9.40;4.28;;;12.00;64.30;;;;;;6220241;28;20540;-74
2022/11/08 06:57:20;;;;;;;7.20;4.25;;;12.10;64.40;;;;;;6218847;28;20158;-74
2022/11/08 07:00:21;;;;;;;7.05;3.17;;;12.10;64.20;;;;;;6254063;28;20033;-75
2022/11/08 07:03:23;;;;;;;8.98;3.97;;;12.10;64.00;;;;;;6245775;28;20061;-75
2022/11/08 07:06:24;;;;;;;7.82;3.45;;;12.10;63.90;;;;;;6250153;28;20041;-75
2022/11/08 07:09:25;;;;;;;10.52;3.83;;;12.10;63.90;;;;;;6220215;28;20038;-76
2022/11/08 07:12:26;;;;;;;7.55;4.00;;;12.10;63.70;;;;;;6231814;28;20424;-76
2022/11/08 07:15:28;;;;;;;9.68;3.95;;;12.10;63.70;;;;;;6226926;28;20048;-75
2022/11/08 07:18:29;;;;;;;13.40;4.38;;;12.10;63.70;;;;;;6238167;28;20094;-76
2022/11/08 07:21:30;;;;;;;7.88;3.90;;;12.20;63.50;;;;;;6254846;28;20041;-76
2022/11/08 07:24:30;;;;;;;9.75;4.38;;;12.20;63.30;;;;;;6232118;28;20322;-77
2022/11/08 07:27:33;;;;;;;8.45;3.95;;;12.20;63.30;;;;;;6231509;28;20360;-76
2022/11/08 07:30:34;;;;;;;8.30;3.80;;;12.20;62.90;;;;;;6234923;28;20072;-78
2022/11/08 07:33:35;;;;;;;6.60;3.40;;;12.30;62.80;;;;;;6243361;28;20164;-76
2022/11/08 07:36:36;;;;;;;7.65;3.67;;;12.30;62.60;;;;;;6215376;28;20038;-76
2022/11/08 07:39:37;;;;;;;8.27;4.38;;;12.30;62.30;;;;;;6257662;28;20083;-76
2022/11/08 07:42:39;;;;;;;10.15;4.43;;;12.40;62.30;;;;;;6248959;28;20039;-77
2022/11/08 07:45:43;;;;;;;13.77;4.18;;;12.40;62.00;;;;;;6213619;28;20029;-76
2022/11/08 07:48:44;;;;;;;7.15;3.67;;;12.40;61.70;;;;;;6227418;28;20041;-75
2022/11/08 07:51:45;;;;;;;6.78;3.45;;;12.40;61.50;;;;;;6232847;28;20040;-77
2022/11/08 07:54:46;;;;;;;10.10;4.15;;;12.30;61.50;;;;;;6253294;28;20030;-77
2022/11/08 07:57:47;;;;;;;6.32;3.65;;;12.40;61.60;;;;;;6255445;28;20034;-77
2022/11/08 08:00:48;;;;;;;12.25;4.03;;;12.40;61.40;;;;;;6246394;28;20462;-76
2022/11/08 08:03:49;;;;;;;8.07;4.18;;;12.50;61.50;;;;;;6234152;28;20056;-76
2022/11/08 08:06:50;;;;;;;7.60;3.47;;;12.60;61.40;;;;;;6241027;28;20049;-77
2022/11/08 08:09:51;;;;;;;8.45;3.75;;;12.70;61.20;;;;;;6240713;28;20036;-77
2022/11/08 08:12:53;;;;;;;14.15;3.90;;;12.70;60.80;;;;;;6239138;28;20077;-77
2022/11/08 08:16:01;;;;;;;16.55;4.45;;;12.80;60.80;;;;;;6239636;28;20076;-77
2022/11/08 08:19:02;;;;;;;19.00;3.78;;;12.90;60.60;;;;;;6236276;28;20102;-76
2022/11/08 08:22:03;;;;;;;11.82;4.13;;;12.90;60.40;;;;;;6248745;28;20033;-76
2022/11/08 08:25:05;;;;;;;12.40;4.13;;;13.00;60.30;;;;;;6257002;28;20029;-76
2022/11/08 08:28:06;;;;;;;8.90;3.30;;;13.20;60.00;;;;;;6236080;28;20034;-77
2022/11/08 08:31:07;;;;;;;7.10;3.03;;;13.30;59.40;;;;;;6220907;28;20034;-76
2022/11/08 08:34:08;;;;;;;8.25;3.75;;;13.40;59.10;;;;;;6235666;28;20069;-77
2022/11/08 08:37:14;;;;;;;7.63;3.20;;;13.50;59.00;;;;;;6255449;28;20513;-77
2022/11/08 08:40:15;;;;;;;6.85;3.58;;;13.60;58.60;;;;;;6230240;28;20029;-76
2022/11/08 08:43:16;;;;;;;4.45;2.80;;;13.60;58.50;;;;;;6238756;28;20044;-76
2022/11/08 08:46:17;;;;;;;9.13;3.33;;;13.70;57.80;;;;;;6259370;28;20071;-76
2022/11/08 08:49:18;;;;;;;11.00;3.90;;;13.70;58.00;;;;;;6235352;28;20133;-76
2022/11/08 08:52:19;;;;;;;7.10;3.20;;;13.90;57.80;;;;;;6231938;28;20053;-78
2022/11/08 08:55:20;;;;;;;11.55;3.58;;;13.90;57.50;;;;;;6231525;28;20033;-76
2022/11/08 08:58:22;;;;;;;7.03;3.22;;;13.90;57.40;;;;;;6251178;28;20367;-77
2022/11/08 09:01:23;;;;;;;8.38;3.80;;;14.00;57.30;;;;;;6252844;28;20052;-76
2022/11/08 09:04:27;;;;;;;7.05;3.22;;;14.20;57.40;;;;;;6249688;28;20029;-76
2022/11/08 09:07:30;;;;;;;19.02;4.70;;;14.30;57.10;;;;;;6248963;28;20121;-76
2022/11/08 09:10:31;;;;;;;14.07;4.18;;;14.50;56.90;;;;;;6251707;28;20091;-77
2022/11/08 09:13:32;;;;;;;12.60;4.65;;;14.60;56.80;;;;;;6218596;28;20615;-76
2022/11/08 09:16:33;;;;;;;12.25;3.53;;;14.80;56.50;;;;;;6237359;28;20481;-76
2022/11/08 09:19:34;;;;;;;8.98;3.47;;;14.90;55.80;;;;;;6232021;28;20129;-77
2022/11/08 09:22:36;;;;;;;11.68;3.22;;;15.10;55.70;;;;;;6254707;28;20036;-77
2022/11/08 09:25:37;;;;;;;10.52;4.13;;;15.10;55.70;;;;;;6236445;28;20410;-77
2022/11/08 09:28:38;;;;;;;8.70;3.53;;;15.30;55.60;;;;;;6254009;28;20116;-76
2022/11/08 09:31:39;;;;;;;12.88;4.30;;;15.40;55.10;;;;;;6213951;28;20471;-77
2022/11/08 09:34:40;;;;;;;6.78;3.50;;;15.40;55.10;;;;;;6214156;28;20350;-76
2022/11/08 09:37:42;;;;;;;13.68;3.70;;;15.40;54.60;;;;;;6225586;28;20111;-78
2022/11/08 09:41:02;;;;;;;7.72;3.40;;;15.60;54.70;;;;;;6210701;28;20566;-76
2022/11/08 09:44:27;;;;;;;6.35;2.92;;;15.60;53.90;;;;;;6212036;28;20517;-77
2022/11/08 09:47:36;;;;;;;6.45;3.22;;;15.70;53.40;;;;;;6188764;28;20086;-77
2022/11/08 09:50:41;;;;;;;10.52;3.65;;;15.70;53.30;;;;;;6228784;28;20360;-77
2022/11/08 09:53:52;;;;;;;7.00;3.50;;;15.90;53.30;;;;;;6223768;28;20096;-77
2022/11/08 09:56:54;;;;;;;11.00;4.05;;;16.20;53.00;;;;;;6197819;28;20037;-77
2022/11/08 10:00:04;;;;;;;8.63;3.35;;;16.50;52.60;;;;;;6187259;28;20123;-76
2022/11/08 10:03:12;;;;;;;5.15;3.08;;;16.90;52.40;;;;;;6214185;28;20026;-77
2022/11/08 10:06:28;;;;;;;9.88;3.45;;;17.20;51.80;;;;;;6208272;28;20080;-78
2022/11/08 10:09:59;;;;;;;8.55;3.53;;;17.50;51.50;;;;;;6216084;28;20123;-77
2022/11/08 10:13:26;;;;;;;9.55;3.45;;;17.80;51.00;;;;;;6226799;28;20033;-76
2022/11/08 10:16:39;;;;;;;16.83;3.53;;;18.10;50.60;;;;;;6212704;28;20038;-78
2022/11/08 10:20:04;;;;;;;14.38;3.95;;;18.40;50.00;;;;;;6212307;28;20173;-77
2022/11/08 10:23:22;;;;;;;9.65;3.50;;;18.70;49.70;;;;;;6201689;28;20120;-78
2022/11/08 10:26:35;;;;;;;10.02;4.43;;;19.10;49.10;;;;;;6184950;28;20112;-77
2022/11/08 10:29:44;;;;;;;12.52;4.80;;;19.50;48.60;;;;;;6212474;28;20056;-77
2022/11/08 10:32:53;;;;;;;9.40;4.13;;;19.90;47.80;;;;;;6221282;28;20444;-78
2022/11/08 10:36:00;;;;;;;8.93;3.80;;;20.10;47.60;;;;;;6218589;28;20045;-78
2022/11/08 10:39:08;;;;;;;8.23;3.95;;;20.40;47.10;;;;;;6245078;28;20132;-77
2022/11/08 10:42:31;;;;;;;16.63;5.40;;;20.60;46.90;;;;;;6237974;28;20115;-78
2022/11/08 10:45:32;;;;;;;10.02;3.80;;;20.80;46.40;;;;;;6227936;28;20038;-76
2022/11/08 10:48:39;;;;;;;11.13;4.20;;;20.90;46.00;;;;;;6217429;28;20485;-77
2022/11/08 10:51:41;;;;;;;20.52;3.88;;;21.00;45.80;;;;;;6228493;28;20038;-76
2022/11/08 10:54:47;;;;;;;16.88;4.38;;;21.10;45.70;;;;;;6234537;28;20037;-76
2022/11/08 10:57:48;;;;;;;7.15;3.15;;;21.20;45.50;;;;;;6236640;28;20057;-77
2022/11/08 11:01:04;;;;;;;5.90;2.75;;;21.20;45.10;;;;;;6251815;28;20040;-76
2022/11/08 11:04:23;;;;;;;6.90;3.22;;;21.10;45.10;;;;;;6247959;28;20442;-77
2022/11/08 11:07:32;;;;;;;;;;;21.10;45.30;;;;;;6247263;28;20071;-77
2022/11/08 11:10:42;;;;;;;12.70;3.30;;;21.10;44.70;;;;;;6255641;28;20958;-77
2022/11/08 11:13:43;;;;;;;11.55;3.00;;;21.60;44.00;;;;;;6242603;28;20040;-77
2022/11/08 11:16:59;;;;;;;8.80;2.92;;;22.30;43.30;;;;;;6252122;28;20468;-78
2022/11/08 11:20:00;;;;;;;14.48;3.60;;;23.10;42.00;;;;;;6231220;28;20040;-77
2022/11/08 11:23:01;;;;;;;8.20;2.65;;;23.90;40.80;;;;;;6232477;28;20082;-78
2022/11/08 11:26:04;;;;;;;3.85;1.42;;;24.30;39.50;;;;;;6228884;28;20041;-78
2022/11/08 11:29:05;;;;;;;6.50;1.52;;;24.50;38.90;;;;;;6236496;28;20457;-77
2022/11/08 11:32:33;;;;;;;2.92;1.20;;;24.80;37.40;;;;;;6245257;28;20096;-78
2022/11/08 11:35:44;;;;;;;3.40;1.05;;;25.10;36.40;;;;;;6190237;28;20049;-78
2022/11/08 11:39:08;;;;;;;6.82;1.50;;;25.70;35.20;;;;;;6235803;28;20037;-78
2022/11/08 11:42:33;;;;;;;5.10;0.90;;;26.40;34.30;;;;;;6118527;28;20061;-79
2022/11/08 11:45:39;;;;;;;1.38;0.90;;;26.90;33.30;;;;;;6151854;28;20531;-78
2022/11/08 11:48:59;;;;;;;2.92;1.15;;;27.00;32.70;;;;;;6152606;28;20118;-77
2022/11/08 11:52:00;;;;;;;1.48;0.90;;;27.00;31.70;;;;;;6130524;28;20059;-77
2022/11/08 11:55:01;;;;;;;4.90;1.27;;;26.70;32.10;;;;;;6151650;28;20042;-78
2022/11/08 11:58:30;;;;;;;1.70;0.95;;;26.40;32.70;;;;;;6148607;28;20178;-77
2022/11/08 12:01:57;;;;;;;2.58;0.90;;;26.10;32.20;;;;;;6149718;28;20102;-77
2022/11/08 12:05:18;;;;;;;1.33;0.80;;;25.90;32.80;;;;;;6085833;29;20056;-77
2022/11/08 12:08:22;;;;;;;1.88;0.63;;;25.70;32.90;;;;;;6087791;29;20418;-77
2022/11/08 12:11:45;;;;;;;7.25;1.05;;;25.60;33.50;;;;;;6104190;29;20051;-78
2022/11/08 12:14:58;;;;;;;4.30;0.95;;;25.50;33.70;;;;;;6093275;29;20032;-77
2022/11/08 12:18:04;;;;;;;3.45;0.70;;;25.60;34.00;;;;;;6110856;28;20053;-78
2022/11/08 12:21:43;;;;;;;4.43;1.40;;;25.60;33.80;;;;;;6151783;28;20035;-77
2022/11/08 12:24:52;;;;;;;1.33;1.15;;;25.50;33.70;;;;;;6140806;28;20031;-77
2022/11/08 12:28:03;;;;;;;1.15;0.50;;;25.50;33.90;;;;;;6098130;29;20035;-78
2022/11/08 12:31:28;;;;;;;1.27;0.30;;;25.40;33.30;;;;;;6119309;28;20089;-78
2022/11/08 12:34:35;;;;;;;3.63;1.40;;;25.30;33.50;;;;;;6147889;28;20051;-76
2022/11/08 12:37:54;;;;;;;4.55;0.82;;;25.30;33.80;;;;;;6133470;28;20412;-77
2022/11/08 12:41:28;;;;;;;1.25;0.50;;;25.30;33.90;;;;;;6164963;28;20399;-78
2022/11/08 12:44:43;;;;;;;2.90;0.68;;;25.30;34.00;;;;;;6245578;28;20122;-78
2022/11/08 12:47:49;;;;;;;1.48;0.50;;;25.30;34.00;;;;;;6253581;28;20045;-77
2022/11/08 12:50:59;;;;;;;4.68;0.63;;;25.30;34.00;;;;;;6225090;28;20121;-77
2022/11/08 12:54:09;;;;;;;0.80;0.57;;;25.30;34.10;;;;;;6219344;28;20053;-77
2022/11/08 12:57:15;;;;;;;0.93;0.60;;;25.40;34.20;;;;;;6253239;28;20037;-78
2022/11/08 13:00:17;;;;;;;1.45;0.73;;;25.30;33.80;;;;;;6220432;28;20586;-78
2022/11/08 13:03:48;;;;;;;1.20;0.47;;;25.30;33.80;;;;;;6234130;28;20033;-78
2022/11/08 13:07:03;;;;;;;1.02;0.50;;;25.20;33.50;;;;;;6163787;28;20035;-77
2022/11/08 13:10:42;;;;;;;3.15;0.52;;;25.20;33.40;;;;;;6155144;28;20121;-77
2022/11/08 13:13:55;;;;;;;1.67;0.70;;;25.10;33.50;;;;;;6152256;28;20047;-78
2022/11/08 13:17:12;;;;;;;1.17;0.50;;;25.00;34.30;;;;;;6139311;28;20597;-78
2022/11/08 13:20:40;;;;;;;3.60;0.60;;;24.90;33.60;;;;;;6156554;28;20531;-78
2022/11/08 13:23:41;;;;;;;1.77;0.70;;;24.90;33.80;;;;;;6132924;28;20046;-77
2022/11/08 13:26:42;;;;;;;1.33;0.60;;;24.90;34.00;;;;;;6155441;28;20118;-77
2022/11/08 13:29:44;;;;;;;7.60;0.60;;;24.80;33.90;;;;;;6130917;28;20365;-79
2022/11/08 13:33:02;;;;;;;3.28;1.08;;;24.80;33.80;;;;;;6136754;28;20095;-78
2022/11/08 13:36:32;;;;;;;0.55;0.50;;;24.80;33.80;;;;;;6157627;28;20047;-77
2022/11/08 13:40:05;;;;;;;4.05;0.60;;;24.80;33.80;;;;;;6145406;28;20063;-77
2022/11/08 13:43:28;;;;;;;5.35;1.10;;;24.80;33.60;;;;;;6190572;28;20025;-77
2022/11/08 13:46:31;;;;;;;1.45;0.47;;;24.70;33.20;;;;;;6239124;28;20029;-78
2022/11/08 13:49:32;;;;;;;2.15;0.60;;;24.60;33.30;;;;;;6232257;28;20041;-79
2022/11/08 13:52:45;;;;;;;2.92;0.70;;;24.50;33.20;;;;;;6219251;28;20065;-78
2022/11/08 13:55:50;;;;;;;3.17;0.63;;;24.50;33.50;;;;;;6251807;28;20048;-76
2022/11/08 13:58:51;;;;;;;4.85;0.55;;;24.40;33.40;;;;;;6249229;28;20315;-77
2022/11/08 14:02:04;;;;;;;0.60;0.50;;;24.40;33.50;;;;;;6235674;28;20114;-77
2022/11/08 14:05:22;;;;;;;1.08;0.65;;;24.30;33.60;;;;;;6225959;28;20037;-78
2022/11/08 14:08:26;;;;;;;1.52;0.70;;;24.30;33.70;;;;;;6249199;28;20140;-77
2022/11/08 14:11:48;;;;;;;1.88;0.68;;;24.30;33.70;;;;;;6243661;28;20084;-78
2022/11/08 14:15:09;;;;;;;4.63;0.75;;;24.20;33.80;;;;;;6250535;28;20033;-78
2022/11/08 14:18:17;;;;;;;0.40;0.40;;;24.10;33.80;;;;;;6247012;28;20048;-77
2022/11/08 14:21:19;;;;;;;0.90;0.55;;;24.10;33.80;;;;;;6213469;28;20043;-78
2022/11/08 14:24:27;;;;;;;1.50;0.93;;;24.00;34.00;;;;;;6219134;28;20073;-77
2022/11/08 14:27:36;;;;;;;1.30;0.68;;;24.00;34.10;;;;;;6200200;28;20038;-78
2022/11/08 14:30:46;;;;;;;4.32;0.80;;;24.00;34.10;;;;;;6210627;28;20107;-78
2022/11/08 14:33:48;;;;;;;1.98;0.98;;;24.00;34.10;;;;;;6248414;28;20128;-77
2022/11/08 14:36:49;;;;;;;2.22;0.80;;;24.00;34.10;;;;;;6233400;28;20498;-78
2022/11/08 14:39:52;;;;;;;1.50;0.75;;;24.00;34.10;;;;;;6248565;28;20037;-77
2022/11/08 14:42:54;;;;;;;4.10;0.95;;;23.90;34.10;;;;;;6202409;28;22188;-78
2022/11/08 14:45:58;;;;;;;2.75;0.90;;;23.90;34.40;;;;;;6202291;28;20399;-78
2022/11/08 14:49:13;;;;;;;2.20;0.68;;;23.90;34.50;;;;;;6229144;28;20110;-77
2022/11/08 14:52:36;;;;;;;0.98;0.60;;;23.80;34.40;;;;;;6219794;28;20037;-77
2022/11/08 14:55:37;;;;;;;1.85;0.77;;;23.70;35.00;;;;;;6228149;28;20450;-78
2022/11/08 14:58:38;;;;;;;1.42;0.60;;;23.70;34.40;;;;;;6237862;28;20140;-77
2022/11/08 15:01:43;;;;;;;3.25;0.82;;;23.70;34.50;;;;;;6208815;28;20332;-77
2022/11/08 15:04:45;;;;;;;1.83;0.50;;;23.70;34.70;;;;;;6246151;28;20037;-78
2022/11/08 15:07:46;;;;;;;1.30;0.52;;;23.70;34.60;;;;;;6196207;28;20481;-77
2022/11/08 15:11:04;;;;;;;5.20;2.25;;;23.60;34.60;;;;;;6238104;28;20043;-78
2022/11/08 15:14:09;;;;;;;9.43;0.77;;;23.60;34.80;;;;;;6245484;28;20037;-78
2022/11/08 15:17:37;;;;;;;2.15;0.68;;;23.50;34.90;;;;;;6245084;28;20037;-78
2022/11/08 15:20:51;;;;;;;2.53;0.70;;;23.40;35.10;;;;;;6245568;28;20025;-76
2022/11/08 15:23:53;;;;;;;0.90;0.55;;;23.40;35.00;;;;;;6247829;28;20025;-76
2022/11/08 15:27:18;;;;;;;2.95;0.80;;;23.30;35.10;;;;;;6251134;28;20026;-76
2022/11/08 15:30:37;;;;;;;0.93;0.60;;;23.20;35.30;;;;;;6198986;28;20080;-77
2022/11/08 15:33:42;;;;;;;0.90;0.60;;;23.20;35.30;;;;;;6176416;28;20196;-77
2022/11/08 15:36:44;;;;;;;1.33;0.65;;;23.10;35.40;;;;;;6195648;28;20129;-79
2022/11/08 15:39:45;;;;;;;1.27;0.63;;;23.10;35.50;;;;;;6185035;28;20038;-76
2022/11/08 15:42:48;;;;;;;1.73;0.85;;;23.00;35.60;;;;;;6182721;28;20100;-77
2022/11/08 15:45:53;;;;;;;1.38;0.57;;;23.00;35.70;;;;;;6181575;28;20093;-77
2022/11/08 15:48:58;;;;;;;1.77;0.60;;;23.00;35.80;;;;;;6192011;28;20635;-77
2022/11/08 15:52:02;;;;;;;2.25;0.52;;;22.90;35.90;;;;;;6185851;28;20104;-77
2022/11/08 15:55:03;;;;;;;2.45;0.95;;;22.90;36.00;;;;;;6188517;28;20046;-77
2022/11/08 15:58:12;;;;;;;1.70;0.73;;;22.90;36.10;;;;;;6188306;28;20038;-78
2022/11/08 16:01:21;;;;;;;7.63;1.00;;;22.90;36.20;;;;;;6186491;28;20156;-77
2022/11/08 16:04:23;;;;;;;1.90;0.80;;;22.80;36.40;;;;;;6178698;28;20183;-77
2022/11/08 16:07:25;;;;;;;5.18;0.90;;;22.80;36.50;;;;;;6195077;28;20038;-77
2022/11/08 16:10:37;;;;;;;2.92;0.75;;;22.70;36.70;;;;;;6230964;28;20064;-77
2022/11/08 16:13:39;;;;;;;1.60;0.70;;;22.70;36.90;;;;;;6227706;28;20982;-76
2022/11/08 16:16:40;;;;;;;1.77;1.00;;;22.60;37.00;;;;;;6242110;28;20049;-77
2022/11/08 16:19:41;;;;;;;1.98;0.98;;;22.60;37.20;;;;;;6255168;28;20045;-77
2022/11/08 16:22:43;;;;;;;2.45;0.68;;;22.60;37.30;;;;;;6239686;28;20362;-76